Time;durP1;ratioP1;P1;durP2;ratioP2;P2;SDS_P1;SDS_P2;PMS_P1;PMS_P2;Temp;Humidity;BMP_temperature;BMP_pressure;BME280_temperature;BME280_humidity;BME280_pressure;Samples;Min_cycle;Max_cycle;Signal;HPM_P1;HPM_P2
2023/10/03 00:00:49;;;;;;;49.22;8.57;;;;;;;21.72;58.18;99569.09;7310425;19;130483;-36
2023/10/03 00:03:15;;;;;;;38.78;7.95;;;;;;;21.71;58.95;99573.50;7312167;19;129124;-38
2023/10/03 00:05:42;;;;;;;76.30;10.37;;;;;;;21.61;58.06;99559.63;7309639;19;129518;-36
2023/10/03 00:08:08;;;;;;;73.10;10.18;;;;;;;21.73;58.23;99576.00;7307637;19;130259;-38
2023/10/03 00:10:38;;;;;;;84.10;10.52;;;;;;;21.72;58.66;99577.78;7309416;19;130344;-38
2023/10/03 00:13:07;;;;;;;33.03;7.82;;;;;;;21.58;58.43;99552.06;7311166;19;130861;-37
2023/10/03 00:15:33;;;;;;;25.90;7.65;;;;;;;21.72;58.23;99567.31;7310036;19;129052;-36
2023/10/03 00:17:58;;;;;;;66.47;10.13;;;;;;;21.72;58.47;99562.06;7306411;19;130078;-35
2023/10/03 00:20:23;;;;;;;51.42;8.60;;;;;;;21.72;58.74;99564.69;7309884;19;130543;-37
2023/10/03 00:22:50;;;;;;;62.08;8.98;;;;;;;21.71;58.46;99560.44;7309849;19;129432;-40
2023/10/03 00:25:19;;;;;;;;;;;;;;;21.76;60.52;99560.00;7310627;19;129590;-36
2023/10/03 00:27:51;;;;;;;128.65;13.32;;;;;;;21.73;59.20;99555.84;7304812;19;130227;-37
2023/10/03 00:30:19;;;;;;;68.22;9.35;;;;;;;21.73;58.15;99549.81;7308404;19;129913;-38
2023/10/03 00:32:45;;;;;;;48.47;8.93;;;;;;;21.72;58.75;99548.97;7309960;19;128997;-38
2023/10/03 00:35:11;;;;;;;43.10;8.27;;;;;;;21.72;58.55;99545.53;7305910;19;129333;-35
2023/10/03 00:37:37;;;;;;;70.75;9.80;;;;;;;21.73;58.64;99540.16;7307061;19;130353;-37
2023/10/03 00:40:16;;;;;;;64.13;9.40;;;;;;;21.73;58.94;99534.91;7307258;19;130455;-36
2023/10/03 00:42:43;;;;;;;36.72;8.27;;;;;;;21.74;58.91;99531.34;7310001;19;128694;-36
2023/10/03 00:45:10;;;;;;;35.50;7.63;;;;;;;21.71;58.19;99529.03;7307058;19;129570;-37
2023/10/03 00:47:35;;;;;;;33.22;8.10;;;;;;;21.72;58.09;99516.75;7306612;19;131122;-37
2023/10/03 00:50:03;;;;;;;107.63;11.88;;;;;;;21.74;58.98;99509.59;7305234;19;130371;-36
2023/10/03 00:52:29;;;;;;;26.35;6.95;;;;;;;21.60;58.45;99482.09;7308596;19;129212;-36
2023/10/03 00:54:55;;;;;;;44.13;7.90;;;;;;;21.77;58.13;99511.94;7309164;19;129324;-37
2023/10/03 00:57:22;;;;;;;35.38;8.23;;;;;;;21.74;58.84;99510.41;7306370;19;130019;-38
2023/10/03 00:59:48;;;;;;;88.90;11.02;;;;;;;21.74;58.43;99504.34;7303613;19;130619;-39
2023/10/03 01:02:13;;;;;;;36.37;8.10;;;;;;;21.74;58.47;99507.81;7309697;19;129468;-37
2023/10/03 01:04:39;;;;;;;38.15;7.95;;;;;;;21.76;58.15;99502.44;7312324;19;129168;-37
2023/10/03 01:07:04;;;;;;;39.37;8.00;;;;;;;21.75;58.85;99495.56;7314109;19;130220;-37
2023/10/03 01:09:33;;;;;;;83.07;10.13;;;;;;;21.76;58.67;99498.06;7314780;19;131278;-37
2023/10/03 01:11:58;;;;;;;64.22;9.90;;;;;;;21.76;58.17;99497.19;7315389;19;129029;-37
2023/10/03 01:14:25;;;;;;;40.67;8.18;;;;;;;21.76;58.56;99486.72;7315717;19;129002;-37
2023/10/03 01:16:51;;;;;;;34.85;7.65;;;;;;;21.75;58.39;99485.09;7309022;19;131085;-37
2023/10/03 01:19:20;;;;;;;90.50;10.43;;;;;;;21.75;58.58;99480.66;7308559;19;130950;-38
2023/10/03 01:21:50;;;;;;;25.20;7.15;;;;;;;21.74;58.73;99475.56;7313359;19;129048;-36
2023/10/03 01:24:20;;;;;;;42.28;8.23;;;;;;;21.74;58.18;99476.41;7314492;19;129156;-38
2023/10/03 01:26:46;;;;;;;31.67;6.90;;;;;;;21.74;58.14;99473.78;7313129;19;130200;-36
2023/10/03 01:29:12;;;;;;;48.77;8.33;;;;;;;21.76;58.24;99476.25;7313817;19;130343;-35
2023/10/03 01:31:39;;;;;;;65.38;9.40;;;;;;;21.77;58.06;99472.69;7314527;19;129189;-38
2023/10/03 01:34:05;;;;;;;34.67;7.38;;;;;;;21.76;58.21;99471.91;7315829;19;129562;-38
2023/10/03 01:36:31;;;;;;;36.47;7.03;;;;;;;21.72;58.24;99465.25;7313444;19;130255;-37
2023/10/03 01:38:56;;;;;;;88.80;9.97;;;;;;;21.75;58.25;99464.97;7310766;19;130374;-38
2023/10/03 01:41:21;;;;;;;45.33;7.67;;;;;;;21.76;58.30;99460.56;7314994;19;128943;-36
2023/10/03 01:43:47;;;;;;;99.10;11.27;;;;;;;21.77;58.32;99457.00;7311746;19;130607;-36
2023/10/03 01:46:12;;;;;;;55.97;8.52;;;;;;;21.74;58.38;99452.84;7307731;19;131842;-39
2023/10/03 01:48:38;;;;;;;68.63;9.25;;;;;;;21.75;58.79;99459.72;7308785;19;130345;-37
2023/10/03 01:51:04;;;;;;;35.77;7.17;;;;;;;21.77;57.97;99455.22;7313515;19;129236;-38
2023/10/03 01:53:30;;;;;;;72.87;9.50;;;;;;;21.77;58.14;99455.22;7312682;19;129385;-34
2023/10/03 01:55:58;;;;;;;65.30;9.47;;;;;;;21.79;59.20;99455.06;7308000;19;131997;-37
2023/10/03 01:58:24;;;;;;;72.68;9.02;;;;;;;21.79;57.96;99453.28;7310043;19;131471;-38
2023/10/03 02:00:50;;;;;;;58.63;8.77;;;;;;;21.76;58.12;99450.97;7310510;19;130853;-38
2023/10/03 02:03:18;;;;;;;49.63;8.60;;;;;;;21.68;58.50;99424.63;7313484;19;129631;-38
2023/10/03 02:05:43;;;;;;;57.67;8.70;;;;;;;21.79;58.68;99440.19;7311425;19;130926;-37
2023/10/03 02:08:19;;;;;;;84.83;9.67;;;;;;;21.79;58.04;99439.38;7308923;19;129149;-38
2023/10/03 02:10:49;;;;;;;67.28;8.90;;;;;;;21.77;57.95;99430.81;7309039;19;129276;-37
2023/10/03 02:13:17;;;;;;;46.10;7.40;;;;;;;21.78;58.02;99438.53;7312452;19;129167;-37
2023/10/03 02:15:44;;;;;;;235.27;20.00;;;;;;;21.79;58.97;99421.88;7307858;19;130597;-35
2023/10/03 02:18:10;;;;;;;36.85;6.97;;;;;;;21.80;58.30;99420.91;7308686;19;131927;-37
2023/10/03 02:20:38;;;;;;;58.20;8.30;;;;;;;21.81;58.43;99421.72;7313719;19;129354;-35
2023/10/03 02:23:05;;;;;;;24.63;6.55;;;;;;;21.80;57.84;99420.91;7310254;19;129325;-37
2023/10/03 02:25:36;;;;;;;33.75;7.05;;;;;;;21.81;58.08;99413.88;7311844;19;130791;-38
2023/10/03 02:28:02;;;;;;;92.38;9.80;;;;;;;21.81;58.43;99413.88;7301068;19;130727;-38
2023/10/03 02:30:29;;;;;;;81.70;9.77;;;;;;;21.82;58.45;99408.50;7308868;19;130794;-36
2023/10/03 02:32:57;;;;;;;82.38;10.25;;;;;;;21.81;58.07;99401.63;7307612;19;129061;-37
2023/10/03 02:35:24;;;;;;;47.03;7.22;;;;;;;21.81;58.30;99400.78;7311490;19;130843;-37
2023/10/03 02:37:56;;;;;;;30.92;6.90;;;;;;;21.82;57.68;99398.03;7303061;19;130479;-36
2023/10/03 02:40:26;;;;;;;64.90;8.05;;;;;;;21.83;58.51;99399.66;7313441;19;129358;-38
2023/10/03 02:42:51;;;;;;;67.30;9.27;;;;;;;21.71;58.53;99371.19;7308116;19;129432;-37
2023/10/03 02:45:21;;;;;;;56.37;8.13;;;;;;;21.80;58.03;99392.13;7311686;19;130170;-37
2023/10/03 02:47:48;;;;;;;73.40;9.68;;;;;;;21.83;57.62;99391.81;7303115;19;130610;-37
2023/10/03 02:50:14;;;;;;;44.25;7.13;;;;;;;21.83;58.02;99388.41;7310914;19;129793;-35
2023/10/03 02:52:40;;;;;;;60.65;8.30;;;;;;;21.84;57.88;99379.56;7312452;19;129009;-36
2023/10/03 02:55:12;;;;;;;74.68;9.75;;;;;;;21.71;57.86;99358.94;7307873;19;131379;-37
2023/10/03 02:57:38;;;;;;;48.85;7.30;;;;;;;21.84;58.41;99369.94;7306677;19;130357;-37
2023/10/03 03:00:12;;;;;;;47.35;7.55;;;;;;;21.83;58.12;99357.78;7308378;19;130236;-38
2023/10/03 03:02:39;;;;;;;54.20;7.75;;;;;;;21.83;58.24;99355.19;7310923;19;129083;-36
2023/10/03 03:05:05;;;;;;;42.75;7.60;;;;;;;21.84;58.14;99348.16;7311557;19;129384;-34
2023/10/03 03:07:30;;;;;;;53.10;7.87;;;;;;;21.85;57.94;99349.78;7303929;19;130999;-35
2023/10/03 03:09:59;;;;;;;65.97;8.82;;;;;;;21.84;57.91;99338.53;7310026;19;129246;-38
2023/10/03 03:12:24;;;;;;;56.63;7.45;;;;;;;21.84;58.16;99341.13;7310242;19;129166;-38
2023/10/03 03:14:52;;;;;;;34.53;6.82;;;;;;;21.85;57.88;99332.31;7313280;19;130499;-36
2023/10/03 03:17:20;;;;;;;45.60;7.25;;;;;;;21.86;57.50;99323.50;7308080;19;130521;-39
2023/10/03 03:19:46;;;;;;;30.30;6.53;;;;;;;21.85;58.50;99329.69;7310646;19;129005;-37
2023/10/03 03:22:15;;;;;;;74.40;8.27;;;;;;;21.85;58.58;99321.00;7311694;19;131323;-37
2023/10/03 03:24:40;;;;;;;57.17;8.27;;;;;;;21.86;58.27;99318.28;7312076;19;130342;-36
2023/10/03 03:27:11;;;;;;;51.50;7.63;;;;;;;21.85;58.27;99319.22;7307509;19;131002;-38
2023/10/03 03:29:47;;;;;;;30.52;6.07;;;;;;;21.73;57.92;99296.81;7311289;19;129439;-36
2023/10/03 03:32:19;;;;;;;26.15;6.53;;;;;;;21.83;58.51;99305.44;7310908;19;128897;-37
2023/10/03 03:34:45;;;;;;;69.37;7.83;;;;;;;21.86;58.20;99297.34;7310636;19;130290;-39
2023/10/03 03:37:23;;;;;;;28.17;6.23;;;;;;;21.87;58.02;99306.81;7309524;19;130350;-38
2023/10/03 03:39:57;;;;;;;28.65;6.43;;;;;;;21.86;57.43;99299.13;7309659;19;129274;-38
2023/10/03 03:42:22;;;;;;;33.40;6.78;;;;;;;21.86;58.48;99294.72;7310430;19;129208;-37
2023/10/03 03:44:49;;;;;;;31.47;6.83;;;;;;;21.87;57.79;99291.13;7310241;19;131006;-35
2023/10/03 03:47:18;;;;;;;85.95;9.15;;;;;;;21.73;57.94;99268.03;7306372;19;131061;-36
2023/10/03 03:49:44;;;;;;;32.28;6.38;;;;;;;21.85;58.48;99287.81;7310886;19;129248;-37
2023/10/03 03:52:11;;;;;;;51.50;7.43;;;;;;;21.87;57.57;99291.13;7310021;19;129228;-35
2023/10/03 03:54:39;;;;;;;25.85;6.03;;;;;;;21.87;58.30;99278.03;7310288;19;130119;-39
2023/10/03 03:57:05;;;;;;;64.90;8.38;;;;;;;21.88;57.67;99277.03;7308068;19;130928;-38
2023/10/03 03:59:32;;;;;;;40.97;6.87;;;;;;;21.87;57.87;99275.41;7309115;19;129065;-37
2023/10/03 04:01:59;;;;;;;50.90;7.50;;;;;;;21.87;57.67;99267.56;7309478;19;129100;-37
2023/10/03 04:04:25;;;;;;;16.00;5.65;;;;;;;21.74;58.26;99250.53;7309834;19;130158;-38
2023/10/03 04:06:50;;;;;;;56.45;7.88;;;;;;;21.87;58.34;99264.94;7308568;19;130319;-39
2023/10/03 04:09:16;;;;;;;41.75;6.95;;;;;;;21.88;57.40;99266.56;7310543;19;129092;-37
2023/10/03 04:11:41;;;;;;;33.10;6.30;;;;;;;21.87;57.96;99264.94;7309973;19;128866;-38
2023/10/03 04:14:07;;;;;;;64.83;8.37;;;;;;;21.88;58.00;99260.53;7308684;19;130200;-38
2023/10/03 04:16:38;;;;;;;76.80;8.97;;;;;;;21.86;57.81;99258.06;7307760;19;130290;-37
2023/10/03 04:19:05;;;;;;;88.50;9.88;;;;;;;21.86;58.30;99252.84;7308278;19;129263;-37
2023/10/03 04:21:32;;;;;;;47.10;7.13;;;;;;;21.86;58.43;99250.22;7309937;19;129083;-38
2023/10/03 04:23:59;;;;;;;45.58;7.07;;;;;;;21.85;57.83;99240.72;7308816;19;130996;-38
2023/10/03 04:26:25;;;;;;;89.38;9.32;;;;;;;21.78;58.01;99220.53;7308596;19;130270;-39
2023/10/03 04:28:51;;;;;;;65.13;8.03;;;;;;;21.87;57.95;99237.94;7310493;19;129290;-36
2023/10/03 04:31:16;;;;;;;38.77;6.33;;;;;;;21.86;57.75;99237.13;7308048;19;128989;-36
2023/10/03 04:33:43;;;;;;;38.60;6.65;;;;;;;21.87;57.97;99237.94;7309775;19;130229;-39
2023/10/03 04:36:09;;;;;;;87.60;8.93;;;;;;;21.74;58.51;99212.13;7308741;19;130897;-38
2023/10/03 04:38:35;;;;;;;34.87;6.07;;;;;;;21.87;57.63;99230.91;7306745;19;129010;-37
2023/10/03 04:41:00;;;;;;;62.17;8.67;;;;;;;21.89;57.94;99231.59;7315465;19;129137;-36
2023/10/03 04:43:31;;;;;;;33.92;6.80;;;;;;;21.84;57.99;99219.94;7312470;19;129157;-38
2023/10/03 04:46:01;;;;;;;69.05;8.23;;;;;;;21.87;58.16;99233.53;7314108;19;130988;-37
2023/10/03 04:48:28;;;;;;;46.10;6.47;;;;;;;21.88;57.90;99229.94;7313387;19;129323;-36
2023/10/03 04:50:53;;;;;;;49.78;7.10;;;;;;;21.89;57.69;99231.59;7309745;19;129623;-37
2023/10/03 04:53:19;;;;;;;28.40;5.78;;;;;;;21.89;58.42;99223.75;7315407;19;130329;-37
2023/10/03 04:55:47;;;;;;;106.53;10.23;;;;;;;21.91;57.76;99234.06;7312673;19;130089;-37
2023/10/03 04:58:12;;;;;;;66.22;8.52;;;;;;;21.90;58.31;99230.63;7313245;19;131241;-38
2023/10/03 05:00:38;;;;;;;33.87;6.60;;;;;;;21.89;57.87;99231.59;7311731;19;130082;-36
2023/10/03 05:03:04;;;;;;;84.68;9.00;;;;;;;21.91;57.31;99234.06;7310362;19;129789;-37
2023/10/03 05:05:32;;;;;;;72.90;8.18;;;;;;;21.93;57.36;99227.69;7311304;19;130975;-37
2023/10/03 05:07:58;;;;;;;65.32;9.18;;;;;;;21.91;56.50;99234.88;7310299;19;129691;-38
2023/10/03 05:10:25;;;;;;;90.25;12.60;;;;;;;21.96;56.60;99229.19;7314848;19;129499;-35
2023/10/03 05:12:51;;;;;;;103.25;14.30;;;;;;;21.92;56.98;99226.06;7312679;19;131812;-35
2023/10/03 05:15:17;;;;;;;;;;;;;;;21.94;58.33;99228.53;7312893;19;130348;-37
2023/10/03 05:17:44;;;;;;;72.18;10.85;;;;;;;21.80;56.32;99210.72;7312065;19;129013;-35
2023/10/03 05:20:13;;;;;;;90.85;11.07;;;;;;;21.89;56.05;99230.75;7310714;19;129008;-38
2023/10/03 05:22:42;;;;;;;59.15;9.57;;;;;;;21.78;55.81;99216.09;7312290;19;130124;-36
2023/10/03 05:25:12;;;;;;;122.47;13.05;;;;;;;21.88;56.03;99236.97;7312267;19;130444;-34
2023/10/03 05:27:41;;;;;;;108.72;12.82;;;;;;;21.84;56.15;99244.31;7307087;19;129364;-34
2023/10/03 05:30:08;;;;;;;80.07;11.05;;;;;;;21.72;55.90;99224.53;7314203;19;129725;-36
2023/10/03 05:32:35;;;;;;;47.40;8.55;;;;;;;21.83;55.54;99232.19;7313824;19;130208;-35
2023/10/03 05:35:01;;;;;;;46.38;8.52;;;;;;;21.84;55.35;99230.41;7313152;19;130848;-35
2023/10/03 05:37:26;;;;;;;108.40;12.13;;;;;;;21.82;56.05;99229.72;7311373;19;129136;-36
2023/10/03 05:39:52;;;;;;;48.50;8.02;;;;;;;21.84;55.92;99233.00;7310049;19;129862;-39
2023/10/03 05:42:17;;;;;;;40.57;9.13;;;;;;;21.85;56.03;99234.66;7311946;19;130516;-35
2023/10/03 05:44:44;;;;;;;51.23;8.60;;;;;;;21.88;55.98;99234.38;7314235;19;130305;-36
2023/10/03 05:47:09;;;;;;;;;;;;;;;21.90;58.86;99230.63;7309440;19;129221;-36
2023/10/03 05:49:34;;;;;;;61.10;8.50;;;;;;;21.87;55.41;99232.69;7312159;19;129752;-34
2023/10/03 05:52:00;;;;;;;44.58;8.73;;;;;;;21.83;56.27;99226.16;7313461;19;130821;-36
2023/10/03 05:54:25;;;;;;;73.75;9.70;;;;;;;21.79;56.18;99220.38;7310353;19;130691;-36
2023/10/03 05:56:52;;;;;;;64.28;9.65;;;;;;;21.79;55.90;99228.22;7312352;19;129517;-36
2023/10/03 05:59:20;;;;;;;57.05;8.52;;;;;;;21.81;56.09;99218.44;7313454;19;129402;-34
2023/10/03 06:01:50;;;;;;;46.20;7.68;;;;;;;21.84;55.50;99214.69;7309362;19;129549;-35
2023/10/03 06:04:16;;;;;;;88.03;10.07;;;;;;;21.82;55.61;99214.00;7307683;19;130436;-34
2023/10/03 06:06:43;;;;;;;87.97;9.73;;;;;;;21.81;55.75;99217.63;7311292;19;128785;-37
2023/10/03 06:09:12;;;;;;;70.38;9.27;;;;;;;21.83;55.05;99216.47;7308683;19;129358;-38
2023/10/03 06:11:38;;;;;;;92.60;10.43;;;;;;;21.82;56.22;99211.41;7310276;19;131031;-37
2023/10/03 06:14:04;;;;;;;;;;;;;;;21.85;58.84;99214.53;7308859;19;130681;-38
2023/10/03 06:16:29;;;;;;;65.27;8.53;;;;;;;21.79;55.28;99199.44;7312596;19;129630;-36
2023/10/03 06:18:56;;;;;;;34.63;7.35;;;;;;;21.80;55.53;99198.47;7312346;19;129242;-37
2023/10/03 06:21:22;;;;;;;75.85;9.88;;;;;;;21.82;55.54;99214.00;7307958;19;130611;-34
2023/10/03 06:23:47;;;;;;;39.07;6.90;;;;;;;21.80;55.32;99195.00;7309650;19;130980;-35
2023/10/03 06:26:22;;;;;;;73.93;10.40;;;;;;;21.81;55.37;99207.97;7313508;19;128812;-37
2023/10/03 06:28:51;;;;;;;43.20;7.53;;;;;;;21.80;55.30;99188.00;7310017;19;128932;-36
2023/10/03 06:31:19;;;;;;;61.22;8.75;;;;;;;21.83;55.59;99190.31;7309206;19;130184;-39
2023/10/03 06:33:44;;;;;;;48.70;8.30;;;;;;;21.69;55.35;99174.28;7305487;19;131665;-35
2023/10/03 06:36:11;;;;;;;104.53;12.00;;;;;;;21.79;55.80;99196.00;7311717;19;129031;-33
2023/10/03 06:38:37;;;;;;;39.03;7.97;;;;;;;21.78;55.69;99194.38;7310751;19;129104;-34
2023/10/03 06:41:03;;;;;;;68.73;9.40;;;;;;;21.79;56.13;99188.97;7310258;19;129428;-39
2023/10/03 06:43:29;;;;;;;;;;;;;;;21.83;58.26;99190.31;7309344;19;130510;-33
2023/10/03 06:45:54;;;;;;;127.60;13.13;;;;;;;21.78;56.26;99192.56;7305848;19;131557;-35
2023/10/03 06:48:21;;;;;;;73.80;10.05;;;;;;;21.77;55.74;99185.69;7309183;19;129619;-36
2023/10/03 06:50:48;;;;;;;35.42;7.25;;;;;;;21.78;56.01;99192.56;7311415;19;130146;-35
2023/10/03 06:53:13;;;;;;;47.60;8.07;;;;;;;21.78;55.71;99196.97;7310422;19;131001;-35
2023/10/03 06:55:39;;;;;;;102.73;11.70;;;;;;;21.77;56.23;99188.31;7308631;19;129114;-39
2023/10/03 06:58:05;;;;;;;46.47;8.40;;;;;;;21.80;55.96;99182.75;7308730;19;129405;-37
2023/10/03 07:00:32;;;;;;;53.83;8.45;;;;;;;21.75;56.33;99186.78;7306495;19;129346;-36
2023/10/03 07:03:00;;;;;;;59.00;9.02;;;;;;;21.71;56.24;99181.03;7309289;19;131081;-32
2023/10/03 07:05:26;;;;;;;84.35;10.15;;;;;;;21.72;56.74;99187.91;7307295;19;129322;-36
2023/10/03 07:07:51;;;;;;;37.30;7.70;;;;;;;21.78;56.26;99181.28;7308773;19;130117;-34
2023/10/03 07:10:17;;;;;;;68.83;9.73;;;;;;;21.78;56.53;99181.28;7307785;19;130831;-35
2023/10/03 07:12:42;;;;;;;26.20;7.40;;;;;;;21.78;56.18;99161.16;7310318;19;129781;-34
2023/10/03 07:15:08;;;;;;;97.03;10.50;;;;;;;21.75;56.39;99177.13;7307274;19;129552;-36
2023/10/03 07:17:37;;;;;;;47.30;8.02;;;;;;;21.75;56.70;99184.19;7307806;19;129273;-38
2023/10/03 07:20:10;;;;;;;45.60;7.72;;;;;;;21.75;56.73;99174.50;7308553;19;131204;-35
2023/10/03 07:22:36;;;;;;;42.05;8.32;;;;;;;21.77;56.68;99172.59;7310349;19;131187;-35
2023/10/03 07:25:06;;;;;;;92.33;10.57;;;;;;;21.77;56.21;99170.00;7310542;19;129447;-36
2023/10/03 07:27:33;;;;;;;52.97;8.40;;;;;;;21.77;56.37;99174.38;7309386;19;129337;-35
2023/10/03 07:29:58;;;;;;;49.40;8.60;;;;;;;21.76;56.39;99172.72;7311460;19;130724;-32
2023/10/03 07:32:23;;;;;;;21.23;7.47;;;;;;;21.66;56.29;99153.66;7309619;19;131176;-34
2023/10/03 07:34:49;;;;;;;73.80;9.87;;;;;;;21.81;56.92;99160.88;7310216;19;129176;-33
2023/10/03 07:37:16;;;;;;;65.43;9.50;;;;;;;21.80;56.86;99151.38;7309153;19;129081;-36
2023/10/03 07:39:41;;;;;;;;;;;;;;;21.82;58.48;99156.44;7310499;19;131412;-35
2023/10/03 07:42:07;;;;;;;71.28;10.45;;;;;;;21.81;56.57;99152.19;7310379;19;130584;-42
2023/10/03 07:44:32;;;;;;;77.57;10.40;;;;;;;21.80;56.24;99151.38;7310519;19;129419;-39
2023/10/03 07:46:58;;;;;;;43.20;8.13;;;;;;;21.81;56.44;99155.66;7309784;19;128898;-32
2023/10/03 07:49:23;;;;;;;62.75;9.38;;;;;;;21.82;56.24;99140.75;7310112;19;130183;-36
2023/10/03 07:51:56;;;;;;;56.73;9.30;;;;;;;21.77;57.46;99141.19;7310855;19;130576;-34
2023/10/03 07:54:21;;;;;;;97.20;11.13;;;;;;;21.79;56.59;99149.72;7309050;19;129181;-35
2023/10/03 07:56:48;;;;;;;78.30;9.77;;;;;;;21.83;56.64;99140.59;7309432;19;129082;-38
2023/10/03 07:59:14;;;;;;;61.38;9.45;;;;;;;21.80;56.88;99148.75;7309106;19;130600;-36
2023/10/03 08:01:40;;;;;;;41.45;8.07;;;;;;;21.76;56.94;99131.72;7310557;19;130367;-35
2023/10/03 08:04:12;;;;;;;75.57;9.70;;;;;;;21.82;56.63;99145.97;7309160;19;128956;-39
2023/10/03 08:06:39;;;;;;;54.47;8.52;;;;;;;21.82;56.25;99143.34;7310014;19;129357;-35
2023/10/03 08:09:06;;;;;;;45.85;8.70;;;;;;;21.83;56.04;99137.97;7310272;19;129534;-34
2023/10/03 08:11:32;;;;;;;44.08;8.43;;;;;;;21.82;56.33;99138.97;7310179;19;130388;-35
2023/10/03 08:13:59;;;;;;;63.30;9.48;;;;;;;21.82;56.56;99149.41;7313554;19;129420;-36
2023/10/03 08:16:27;;;;;;;69.82;10.15;;;;;;;21.73;57.00;99120.69;7317432;19;130839;-33
2023/10/03 08:19:01;;;;;;;29.23;7.68;;;;;;;21.85;56.08;99141.25;7316729;19;130502;-36
2023/10/03 08:21:28;;;;;;;59.33;9.95;;;;;;;21.85;56.04;99133.41;7315891;19;131173;-34
2023/10/03 08:23:57;;;;;;;;;;;;;;;21.85;58.74;99133.41;7316663;19;129175;-34
2023/10/03 08:26:25;;;;;;;103.07;11.48;;;;;;;21.83;56.53;99126.69;7314988;19;129997;-35
2023/10/03 08:28:59;;;;;;;66.68;10.35;;;;;;;21.83;56.82;99111.81;7316297;19;130129;-35
2023/10/03 08:31:28;;;;;;;52.35;9.48;;;;;;;21.78;56.91;99103.59;7317059;19;130489;-35
2023/10/03 08:33:57;;;;;;;45.90;9.05;;;;;;;21.81;56.80;99102.47;7316668;19;128903;-36
2023/10/03 08:36:27;;;;;;;88.90;10.85;;;;;;;21.77;56.45;99095.88;7316067;19;129458;-35
2023/10/03 08:38:57;;;;;;;107.43;12.20;;;;;;;21.86;56.67;99101.06;7314889;19;130365;-35
2023/10/03 08:41:37;;;;;;;58.10;9.38;;;;;;;21.85;58.09;99098.56;7316489;19;130856;-36
2023/10/03 08:44:05;;;;;;;38.13;8.50;;;;;;;21.83;57.31;99095.31;7317558;19;128970;-36
2023/10/03 08:46:36;;;;;;;32.35;8.23;;;;;;;21.86;56.22;99105.47;7315613;19;128971;-36
2023/10/03 08:49:08;;;;;;;71.25;10.43;;;;;;;21.87;57.29;99100.06;7315810;19;130369;-36
2023/10/03 08:51:35;;;;;;;75.05;9.70;;;;;;;21.86;56.69;99090.59;7314687;19;131052;-35
2023/10/03 08:54:10;;;;;;;39.25;8.18;;;;;;;21.90;56.48;99102.38;7317737;19;129330;-39
2023/10/03 08:56:36;;;;;;;39.10;8.68;;;;;;;21.80;55.98;99091.19;7315900;19;128900;-36
2023/10/03 08:59:09;;;;;;;79.03;11.53;;;;;;;21.94;56.76;99097.66;7314729;19;129601;-34
2023/10/03 09:01:43;;;;;;;42.30;9.57;;;;;;;21.77;56.54;99074.97;7314148;19;130401;-34
2023/10/03 09:04:15;;;;;;;63.58;10.00;;;;;;;21.91;56.73;99088.28;7316250;19;129956;-37
2023/10/03 09:06:42;;;;;;;52.15;9.73;;;;;;;21.74;56.20;99060.38;7316474;19;129489;-39
2023/10/03 09:09:10;;;;;;;71.10;10.52;;;;;;;21.90;55.67;99086.66;7315970;19;130161;-36
2023/10/03 09:11:39;;;;;;;31.08;8.27;;;;;;;21.95;56.33;99084.41;7314528;19;129585;-34
2023/10/03 09:14:05;;;;;;;60.72;9.77;;;;;;;21.91;56.28;99083.06;7315577;19;129140;-37
2023/10/03 09:16:38;;;;;;;71.67;10.03;;;;;;;21.91;56.90;99080.44;7313942;19;129235;-37
2023/10/03 09:19:04;;;;;;;59.83;10.07;;;;;;;21.89;56.17;99079.81;7315208;19;130760;-36
2023/10/03 09:21:29;;;;;;;60.57;10.57;;;;;;;21.90;56.29;99078.81;7314026;19;130339;-33
2023/10/03 09:24:09;;;;;;;42.53;8.68;;;;;;;21.84;57.04;99066.34;7314332;19;129124;-37
2023/10/03 09:26:51;;;;;;;71.75;10.52;;;;;;;21.85;58.13;99052.28;7312415;19;129235;-36
2023/10/03 09:29:29;;;;;;;85.75;11.38;;;;;;;21.87;56.59;99066.03;7313597;19;131082;-34
2023/10/03 09:31:57;;;;;;;66.43;9.88;;;;;;;21.88;56.79;99070.28;7315898;19;130452;-35
2023/10/03 09:34:30;;;;;;;69.72;10.70;;;;;;;21.88;56.57;99061.66;7315160;19;129097;-34
2023/10/03 09:37:02;;;;;;;28.70;8.88;;;;;;;21.90;56.57;99057.03;7313266;19;129032;-36
2023/10/03 09:39:29;;;;;;;62.58;10.48;;;;;;;21.89;56.23;99063.28;7312451;19;130059;-36
2023/10/03 09:41:56;;;;;;;63.80;9.50;;;;;;;21.90;56.14;99055.25;7315057;19;131049;-34
2023/10/03 09:44:29;;;;;;;69.75;10.93;;;;;;;21.90;56.54;99060.50;7315657;19;129732;-37
2023/10/03 09:47:06;;;;;;;38.97;8.57;;;;;;;21.90;56.88;99055.25;7313512;19;129256;-34
2023/10/03 09:49:38;;;;;;;52.28;10.60;;;;;;;21.77;56.76;99033.94;7313783;19;130160;-37
2023/10/03 09:52:08;;;;;;;23.73;7.43;;;;;;;21.88;57.08;99051.19;7315109;19;130695;-34
2023/10/03 09:54:39;;;;;;;82.68;11.40;;;;;;;21.88;56.88;99046.75;7313504;19;128774;-34
2023/10/03 09:57:38;;;;;;;69.22;9.73;;;;;;;21.93;56.20;99046.31;7313065;19;129384;-36
2023/10/03 09:59:57;;;;;;;74.20;10.43;;;;;;;21.92;56.58;99048.09;7310845;19;130323;-35
2023/10/03 10:02:30;;;;;;;47.85;9.00;;;;;;;21.90;56.79;99054.44;7315066;19;131446;-35
2023/10/03 10:05:05;;;;;;;52.20;9.13;;;;;;;21.89;57.79;99043.16;7313300;19;129705;-37
2023/10/03 10:07:50;;;;;;;40.45;8.32;;;;;;;21.89;57.95;99052.81;7313156;19;132598;-35
2023/10/03 10:10:19;;;;;;;31.67;8.45;;;;;;;21.91;56.15;99053.47;7311559;19;130160;-36
2023/10/03 10:13:20;;;;;;;46.03;8.82;;;;;;;21.91;58.50;99056.09;7314409;19;130488;-35
2023/10/03 10:16:01;;;;;;;65.20;10.10;;;;;;;21.87;57.49;99047.72;7313762;19;129182;-34
2023/10/03 10:18:54;;;;;;;61.88;9.25;;;;;;;21.89;58.20;99043.16;7311087;19;129081;-36
2023/10/03 10:21:19;;;;;;;42.10;7.97;;;;;;;21.88;56.88;99041.50;7312954;19;130913;-36
2023/10/03 10:24:16;;;;;;;86.50;10.93;;;;;;;21.77;57.85;99007.75;7314083;19;130502;-35
2023/10/03 10:26:42;;;;;;;35.63;7.78;;;;;;;21.89;55.90;99024.84;7311241;19;129243;-36
2023/10/03 10:29:09;;;;;;;57.30;8.57;;;;;;;21.90;56.36;99023.84;7312812;19;129452;-39
2023/10/03 10:31:52;;;;;;;62.80;9.63;;;;;;;21.89;57.15;99017.00;7313435;19;130253;-35
2023/10/03 10:34:20;;;;;;;32.50;7.40;;;;;;;21.89;56.44;99027.47;7313729;19;131288;-40
2023/10/03 10:37:01;;;;;;;53.00;8.27;;;;;;;21.89;57.34;99027.47;7309483;19;128987;-35
2023/10/03 10:39:56;;;;;;;59.45;9.25;;;;;;;21.94;58.03;99034.84;7311398;19;128717;-38
2023/10/03 10:42:26;;;;;;;46.22;7.85;;;;;;;21.91;57.77;99035.94;7310415;19;130103;-35
2023/10/03 10:45:24;;;;;;;43.80;7.78;;;;;;;21.91;58.28;99030.72;7312217;19;131124;-35
2023/10/03 10:47:51;;;;;;;49.80;8.33;;;;;;;21.93;56.81;99023.53;7310363;19;128838;-36
2023/10/03 10:50:26;;;;;;;76.53;9.70;;;;;;;21.91;57.08;99020.25;7312678;19;128976;-34
2023/10/03 10:53:01;;;;;;;64.43;10.10;;;;;;;21.92;57.36;99016.69;7311873;19;130961;-38
2023/10/03 10:55:27;;;;;;;56.38;9.13;;;;;;;21.92;57.07;99015.84;7313622;19;130592;-37
2023/10/03 10:58:12;;;;;;;44.47;9.07;;;;;;;21.92;58.14;99019.28;7311833;19;129495;-37
2023/10/03 11:00:39;;;;;;;63.50;9.15;;;;;;;21.94;56.50;99013.91;7309012;19;129282;-35
2023/10/03 11:03:06;;;;;;;37.45;8.05;;;;;;;21.93;57.14;99013.06;7313122;19;130128;-34
2023/10/03 11:05:45;;;;;;;91.90;11.20;;;;;;;21.92;58.15;99000.97;7311936;19;130690;-37
2023/10/03 11:08:11;;;;;;;50.03;8.27;;;;;;;21.92;56.30;99003.59;7311320;19;128771;-36
2023/10/03 11:10:52;;;;;;;85.17;10.83;;;;;;;21.80;57.70;98983.06;7310477;19;129303;-35
2023/10/03 11:13:19;;;;;;;36.03;7.75;;;;;;;21.94;56.83;98999.03;7313162;19;131150;-36
2023/10/03 11:15:52;;;;;;;61.88;9.30;;;;;;;21.88;57.68;98994.41;7311188;19;130822;-35
2023/10/03 11:18:27;;;;;;;63.63;8.85;;;;;;;21.93;58.09;98999.97;7309685;19;129969;-35
2023/10/03 11:20:55;;;;;;;78.72;9.73;;;;;;;21.93;56.67;98992.13;7309075;19;128924;-37
2023/10/03 11:23:23;;;;;;;32.78;8.20;;;;;;;21.93;57.01;98994.75;7312983;19;133128;-35